Hlavní strana
METAR-TAF:

METAR-TAF

Letiště :

King Mswati III International Airport

Manzini, Svazijsko

zeměpisná šířka: 26-21-24S, zeměpisná délka: 031-43-01E, výška: 324 m

Aktuální stav počasí

Zpráva byla vytvořena před 11 hodinami a 18 minutami, v 14:00 UTC
Severoseverozápadní vítr 6 kt
Teplota 26°C
Vlhkost vzduchu 79%
Tlak 1008 hPa
Viditelnost 10 km a více
Oblačno až skoro zataženo ve výšce 4000 ft
slabý déšť

METAR: FDSK 071400Z 34006KT 9999 -RA BKN040 26/22 Q1008 TEMPO 8000

Čas: 03:18 (01:18 UTC)

Předpověď počasí

Zpráva byla vytvořena před 15 hodinami a 18 minutami, v 10:00 UTC
Předpověď platná od 07 v 12 UTC do 07 v 18 UTC
Severoseverovýchodní vítr 5 kt
Viditelnost 10 km a více
Žádná oblačnost pod 1500 m, nevyskytují se cumulonimby.
Změna
od 07 v 14 UTC do 07 v 16 UTC
Jihojihovýchodní vítr 8 kt
Viditelnost 10 km a více
Polojasno ve výšce 4000 ft

TAF: FDSK 071000Z 0712/0718 03005KT CAVOK BECMG 0714/0716 16008KT 9999 SCT040

Stav a předpovědi počasí z více než 4 000 letišť (zprávy METAR a TAF).

Červené a žluté tečky na mapě představují dostupné meteorologické stanice.

Když kurzor umístíte na tečku, zobrazí se název stanice.

Pak kliknutím zobrazíte stav a předpověď počasí.

Chcete-li změnit mapu, kliknutím na zelené tlačítko se znaménkem +mapu přiblížíte, kliknutím na zelené tlačítko se znaménkem – mapu oddálíte a kliknutím na zelené šipky přejdete na sousední mapy.


METAR-TAF: